sensor_id;sensor_type;location;lat;lon;timestamp;P1;durP1;ratioP1;P2;durP2;ratioP2
26536;SDS011;14204;51.262;5.488;2022-12-16T00:00:29;95.13;;;44.28;;
26536;SDS011;14204;51.262;5.488;2022-12-16T00:02:56;83.60;;;40.33;;
26536;SDS011;14204;51.262;5.488;2022-12-16T00:05:24;90.57;;;41.55;;
26536;SDS011;14204;51.262;5.488;2022-12-16T00:07:50;92.30;;;43.03;;
26536;SDS011;14204;51.262;5.488;2022-12-16T00:10:15;87.50;;;41.95;;
26536;SDS011;14204;51.262;5.488;2022-12-16T00:12:41;97.68;;;46.38;;
26536;SDS011;14204;51.262;5.488;2022-12-16T00:15:06;88.20;;;43.17;;
26536;SDS011;14204;51.262;5.488;2022-12-16T00:17:32;95.70;;;47.60;;
26536;SDS011;14204;51.262;5.488;2022-12-16T00:19:58;95.72;;;43.00;;
26536;SDS011;14204;51.262;5.488;2022-12-16T00:22:24;93.10;;;43.35;;
26536;SDS011;14204;51.262;5.488;2022-12-16T00:24:49;87.70;;;41.50;;
26536;SDS011;14204;51.262;5.488;2022-12-16T00:27:15;83.22;;;40.47;;
26536;SDS011;14204;51.262;5.488;2022-12-16T00:29:40;82.00;;;39.85;;
26536;SDS011;14204;51.262;5.488;2022-12-16T00:32:06;86.43;;;41.53;;
26536;SDS011;14204;51.262;5.488;2022-12-16T00:34:32;83.70;;;38.72;;
26536;SDS011;14204;51.262;5.488;2022-12-16T00:36:57;85.30;;;39.97;;
26536;SDS011;14204;51.262;5.488;2022-12-16T00:39:23;79.72;;;41.13;;
26536;SDS011;14204;51.262;5.488;2022-12-16T00:41:49;82.93;;;41.42;;
26536;SDS011;14204;51.262;5.488;2022-12-16T00:44:15;81.95;;;38.25;;
26536;SDS011;14204;51.262;5.488;2022-12-16T00:46:41;84.90;;;40.17;;
26536;SDS011;14204;51.262;5.488;2022-12-16T00:49:06;83.03;;;40.08;;
26536;SDS011;14204;51.262;5.488;2022-12-16T00:51:32;87.30;;;40.53;;
26536;SDS011;14204;51.262;5.488;2022-12-16T00:53:57;81.25;;;41.00;;
26536;SDS011;14204;51.262;5.488;2022-12-16T00:56:23;78.65;;;40.65;;
26536;SDS011;14204;51.262;5.488;2022-12-16T00:58:49;83.20;;;38.55;;
26536;SDS011;14204;51.262;5.488;2022-12-16T01:01:15;81.47;;;38.80;;
26536;SDS011;14204;51.262;5.488;2022-12-16T01:03:40;82.07;;;38.90;;
26536;SDS011;14204;51.262;5.488;2022-12-16T01:06:07;76.97;;;37.33;;
26536;SDS011;14204;51.262;5.488;2022-12-16T01:08:38;79.40;;;38.58;;
26536;SDS011;14204;51.262;5.488;2022-12-16T01:11:04;76.60;;;37.60;;
26536;SDS011;14204;51.262;5.488;2022-12-16T01:13:30;74.88;;;38.20;;
26536;SDS011;14204;51.262;5.488;2022-12-16T01:15:58;77.90;;;37.53;;
26536;SDS011;14204;51.262;5.488;2022-12-16T01:18:25;80.05;;;36.63;;
26536;SDS011;14204;51.262;5.488;2022-12-16T01:20:51;75.50;;;35.40;;
26536;SDS011;14204;51.262;5.488;2022-12-16T01:23:16;81.50;;;36.40;;
26536;SDS011;14204;51.262;5.488;2022-12-16T01:25:42;73.90;;;35.22;;
26536;SDS011;14204;51.262;5.488;2022-12-16T01:28:07;74.55;;;36.05;;
26536;SDS011;14204;51.262;5.488;2022-12-16T01:30:33;70.72;;;36.58;;
26536;SDS011;14204;51.262;5.488;2022-12-16T01:32:59;79.32;;;38.15;;
26536;SDS011;14204;51.262;5.488;2022-12-16T01:35:24;89.97;;;41.95;;
26536;SDS011;14204;51.262;5.488;2022-12-16T01:37:50;79.07;;;39.45;;
26536;SDS011;14204;51.262;5.488;2022-12-16T01:40:17;83.90;;;38.90;;
26536;SDS011;14204;51.262;5.488;2022-12-16T01:42:45;83.32;;;38.13;;
26536;SDS011;14204;51.262;5.488;2022-12-16T01:47:58;88.70;;;42.30;;
26536;SDS011;14204;51.262;5.488;2022-12-16T01:50:30;85.18;;;41.05;;
26536;SDS011;14204;51.262;5.488;2022-12-16T01:52:57;86.32;;;40.38;;
26536;SDS011;14204;51.262;5.488;2022-12-16T01:55:28;92.35;;;42.83;;
26536;SDS011;14204;51.262;5.488;2022-12-16T01:58:04;88.13;;;40.97;;
26536;SDS011;14204;51.262;5.488;2022-12-16T02:00:33;87.72;;;42.00;;
26536;SDS011;14204;51.262;5.488;2022-12-16T02:03:01;85.22;;;41.13;;
26536;SDS011;14204;51.262;5.488;2022-12-16T02:05:28;93.47;;;42.83;;
26536;SDS011;14204;51.262;5.488;2022-12-16T02:08:13;95.40;;;45.47;;
26536;SDS011;14204;51.262;5.488;2022-12-16T02:24:29;75.75;;;40.08;;
26536;SDS011;14204;51.262;5.488;2022-12-16T02:32:28;106.13;;;41.75;;
26536;SDS011;14204;51.262;5.488;2022-12-16T02:35:08;83.90;;;41.53;;
26536;SDS011;14204;51.262;5.488;2022-12-16T02:37:43;84.53;;;41.92;;
26536;SDS011;14204;51.262;5.488;2022-12-16T02:40:35;83.22;;;41.45;;
26536;SDS011;14204;51.262;5.488;2022-12-16T02:46:00;82.03;;;39.97;;
26536;SDS011;14204;51.262;5.488;2022-12-16T02:48:27;84.53;;;41.17;;
26536;SDS011;14204;51.262;5.488;2022-12-16T02:50:52;88.10;;;43.08;;
26536;SDS011;14204;51.262;5.488;2022-12-16T02:53:19;78.63;;;39.80;;
26536;SDS011;14204;51.262;5.488;2022-12-16T03:04:05;93.85;;;44.22;;
26536;SDS011;14204;51.262;5.488;2022-12-16T03:06:39;90.45;;;44.50;;
26536;SDS011;14204;51.262;5.488;2022-12-16T03:09:09;83.32;;;42.15;;
26536;SDS011;14204;51.262;5.488;2022-12-16T03:11:37;83.28;;;42.10;;
26536;SDS011;14204;51.262;5.488;2022-12-16T03:14:06;88.05;;;43.25;;
26536;SDS011;14204;51.262;5.488;2022-12-16T03:16:35;97.53;;;46.63;;
26536;SDS011;14204;51.262;5.488;2022-12-16T03:19:01;89.15;;;45.20;;
26536;SDS011;14204;51.262;5.488;2022-12-16T03:21:32;104.47;;;52.10;;
26536;SDS011;14204;51.262;5.488;2022-12-16T03:24:03;90.93;;;46.88;;
26536;SDS011;14204;51.262;5.488;2022-12-16T03:26:34;89.40;;;45.30;;
26536;SDS011;14204;51.262;5.488;2022-12-16T03:29:17;87.07;;;43.95;;
26536;SDS011;14204;51.262;5.488;2022-12-16T03:31:48;103.55;;;51.88;;
26536;SDS011;14204;51.262;5.488;2022-12-16T03:36:52;90.78;;;47.20;;
26536;SDS011;14204;51.262;5.488;2022-12-16T03:39:24;83.35;;;43.80;;
26536;SDS011;14204;51.262;5.488;2022-12-16T03:41:51;98.88;;;47.83;;
26536;SDS011;14204;51.262;5.488;2022-12-16T03:44:18;92.95;;;46.88;;
26536;SDS011;14204;51.262;5.488;2022-12-16T03:46:46;86.82;;;44.00;;
26536;SDS011;14204;51.262;5.488;2022-12-16T03:49:12;103.07;;;47.13;;
26536;SDS011;14204;51.262;5.488;2022-12-16T03:51:38;92.93;;;46.28;;
26536;SDS011;14204;51.262;5.488;2022-12-16T03:54:03;90.88;;;45.97;;
26536;SDS011;14204;51.262;5.488;2022-12-16T03:56:29;92.95;;;45.95;;
26536;SDS011;14204;51.262;5.488;2022-12-16T03:58:55;94.18;;;46.03;;
26536;SDS011;14204;51.262;5.488;2022-12-16T04:01:20;93.15;;;45.95;;
26536;SDS011;14204;51.262;5.488;2022-12-16T04:03:47;93.30;;;44.75;;
26536;SDS011;14204;51.262;5.488;2022-12-16T04:06:13;90.25;;;46.10;;
26536;SDS011;14204;51.262;5.488;2022-12-16T04:08:42;96.38;;;47.08;;
26536;SDS011;14204;51.262;5.488;2022-12-16T04:11:12;85.75;;;45.58;;
26536;SDS011;14204;51.262;5.488;2022-12-16T04:13:57;89.30;;;46.30;;
26536;SDS011;14204;51.262;5.488;2022-12-16T04:16:41;85.07;;;45.63;;
26536;SDS011;14204;51.262;5.488;2022-12-16T04:19:27;88.68;;;45.00;;
26536;SDS011;14204;51.262;5.488;2022-12-16T04:22:32;91.32;;;47.20;;
26536;SDS011;14204;51.262;5.488;2022-12-16T04:25:22;99.30;;;49.50;;
26536;SDS011;14204;51.262;5.488;2022-12-16T04:27:52;94.47;;;47.53;;
26536;SDS011;14204;51.262;5.488;2022-12-16T04:30:18;99.72;;;48.35;;
26536;SDS011;14204;51.262;5.488;2022-12-16T04:32:45;104.35;;;53.35;;
26536;SDS011;14204;51.262;5.488;2022-12-16T04:35:34;108.00;;;50.75;;
26536;SDS011;14204;51.262;5.488;2022-12-16T04:38:18;99.95;;;47.70;;
26536;SDS011;14204;51.262;5.488;2022-12-16T04:41:03;91.57;;;47.03;;
26536;SDS011;14204;51.262;5.488;2022-12-16T04:43:47;101.28;;;48.33;;
26536;SDS011;14204;51.262;5.488;2022-12-16T04:46:31;104.60;;;50.00;;
26536;SDS011;14204;51.262;5.488;2022-12-16T04:49:15;98.55;;;50.00;;
26536;SDS011;14204;51.262;5.488;2022-12-16T04:51:59;94.20;;;47.95;;
26536;SDS011;14204;51.262;5.488;2022-12-16T04:54:43;106.22;;;51.95;;
26536;SDS011;14204;51.262;5.488;2022-12-16T04:57:27;99.10;;;51.78;;
26536;SDS011;14204;51.262;5.488;2022-12-16T05:00:11;97.35;;;49.95;;
26536;SDS011;14204;51.262;5.488;2022-12-16T05:02:56;98.07;;;50.13;;
26536;SDS011;14204;51.262;5.488;2022-12-16T05:05:40;92.55;;;48.58;;
26536;SDS011;14204;51.262;5.488;2022-12-16T05:08:29;89.57;;;47.67;;
26536;SDS011;14204;51.262;5.488;2022-12-16T05:11:13;103.30;;;51.70;;
26536;SDS011;14204;51.262;5.488;2022-12-16T05:13:57;115.10;;;58.05;;
26536;SDS011;14204;51.262;5.488;2022-12-16T05:16:41;104.18;;;50.70;;
26536;SDS011;14204;51.262;5.488;2022-12-16T05:19:25;113.25;;;52.53;;
26536;SDS011;14204;51.262;5.488;2022-12-16T05:22:09;121.95;;;55.70;;
26536;SDS011;14204;51.262;5.488;2022-12-16T05:24:53;99.10;;;50.50;;
26536;SDS011;14204;51.262;5.488;2022-12-16T05:27:37;107.07;;;52.53;;
26536;SDS011;14204;51.262;5.488;2022-12-16T05:30:21;102.10;;;52.35;;
26536;SDS011;14204;51.262;5.488;2022-12-16T05:33:05;102.00;;;54.60;;
26536;SDS011;14204;51.262;5.488;2022-12-16T05:35:49;100.10;;;51.22;;
26536;SDS011;14204;51.262;5.488;2022-12-16T05:38:33;101.53;;;49.88;;
26536;SDS011;14204;51.262;5.488;2022-12-16T05:41:17;107.97;;;52.42;;
26536;SDS011;14204;51.262;5.488;2022-12-16T05:44:01;101.95;;;49.38;;
26536;SDS011;14204;51.262;5.488;2022-12-16T05:46:45;104.57;;;53.42;;
26536;SDS011;14204;51.262;5.488;2022-12-16T05:49:29;110.32;;;54.22;;
26536;SDS011;14204;51.262;5.488;2022-12-16T05:52:13;118.15;;;54.13;;
26536;SDS011;14204;51.262;5.488;2022-12-16T05:54:58;107.10;;;52.03;;
26536;SDS011;14204;51.262;5.488;2022-12-16T05:57:41;110.20;;;53.60;;
26536;SDS011;14204;51.262;5.488;2022-12-16T06:00:26;118.78;;;57.17;;
26536;SDS011;14204;51.262;5.488;2022-12-16T06:03:10;115.25;;;53.92;;
26536;SDS011;14204;51.262;5.488;2022-12-16T06:05:54;115.65;;;53.85;;
26536;SDS011;14204;51.262;5.488;2022-12-16T06:08:38;119.88;;;56.42;;
26536;SDS011;14204;51.262;5.488;2022-12-16T06:11:22;107.53;;;52.10;;
26536;SDS011;14204;51.262;5.488;2022-12-16T06:14:06;111.95;;;53.00;;
26536;SDS011;14204;51.262;5.488;2022-12-16T06:16:50;135.57;;;60.35;;
26536;SDS011;14204;51.262;5.488;2022-12-16T06:19:34;131.75;;;57.10;;
26536;SDS011;14204;51.262;5.488;2022-12-16T06:22:18;154.00;;;63.90;;
26536;SDS011;14204;51.262;5.488;2022-12-16T06:25:02;158.07;;;63.03;;
26536;SDS011;14204;51.262;5.488;2022-12-16T06:27:53;142.73;;;57.40;;
26536;SDS011;14204;51.262;5.488;2022-12-16T06:30:37;138.00;;;54.55;;
26536;SDS011;14204;51.262;5.488;2022-12-16T06:33:21;161.52;;;60.15;;
26536;SDS011;14204;51.262;5.488;2022-12-16T06:36:06;178.63;;;65.60;;
26536;SDS011;14204;51.262;5.488;2022-12-16T06:38:50;177.82;;;64.07;;
26536;SDS011;14204;51.262;5.488;2022-12-16T06:41:34;184.68;;;64.57;;
26536;SDS011;14204;51.262;5.488;2022-12-16T06:44:18;201.95;;;68.20;;
26536;SDS011;14204;51.262;5.488;2022-12-16T06:47:02;225.07;;;73.65;;
26536;SDS011;14204;51.262;5.488;2022-12-16T06:49:47;173.00;;;61.72;;
26536;SDS011;14204;51.262;5.488;2022-12-16T06:52:31;200.57;;;70.88;;
26536;SDS011;14204;51.262;5.488;2022-12-16T06:55:15;220.73;;;72.95;;
26536;SDS011;14204;51.262;5.488;2022-12-16T06:57:59;208.07;;;70.30;;
26536;SDS011;14204;51.262;5.488;2022-12-16T07:00:44;226.35;;;73.70;;
26536;SDS011;14204;51.262;5.488;2022-12-16T07:03:29;177.63;;;70.53;;
26536;SDS011;14204;51.262;5.488;2022-12-16T07:06:13;184.10;;;65.43;;
26536;SDS011;14204;51.262;5.488;2022-12-16T07:08:57;172.88;;;63.03;;
26536;SDS011;14204;51.262;5.488;2022-12-16T07:11:41;182.65;;;62.80;;
26536;SDS011;14204;51.262;5.488;2022-12-16T07:14:25;111.82;;;42.95;;
26536;SDS011;14204;51.262;5.488;2022-12-16T07:17:09;168.18;;;61.25;;
26536;SDS011;14204;51.262;5.488;2022-12-16T07:19:53;210.93;;;70.20;;
26536;SDS011;14204;51.262;5.488;2022-12-16T07:22:41;181.65;;;62.05;;
26536;SDS011;14204;51.262;5.488;2022-12-16T07:25:28;195.50;;;63.83;;
26536;SDS011;14204;51.262;5.488;2022-12-16T07:28:12;188.95;;;62.45;;
26536;SDS011;14204;51.262;5.488;2022-12-16T07:30:57;212.52;;;67.85;;
26536;SDS011;14204;51.262;5.488;2022-12-16T07:33:41;271.75;;;78.13;;
26536;SDS011;14204;51.262;5.488;2022-12-16T07:36:25;219.90;;;67.43;;
26536;SDS011;14204;51.262;5.488;2022-12-16T07:39:09;239.35;;;72.90;;
26536;SDS011;14204;51.262;5.488;2022-12-16T07:41:53;203.65;;;60.63;;
26536;SDS011;14204;51.262;5.488;2022-12-16T07:44:37;292.75;;;82.88;;
26536;SDS011;14204;51.262;5.488;2022-12-16T07:47:21;356.75;;;90.10;;
26536;SDS011;14204;51.262;5.488;2022-12-16T07:50:05;249.75;;;76.72;;
26536;SDS011;14204;51.262;5.488;2022-12-16T07:52:56;291.98;;;80.10;;
26536;SDS011;14204;51.262;5.488;2022-12-16T07:55:41;235.77;;;77.70;;
26536;SDS011;14204;51.262;5.488;2022-12-16T07:58:26;254.52;;;79.45;;
26536;SDS011;14204;51.262;5.488;2022-12-16T08:01:11;221.63;;;70.13;;
26536;SDS011;14204;51.262;5.488;2022-12-16T08:03:55;216.73;;;68.60;;
26536;SDS011;14204;51.262;5.488;2022-12-16T08:06:58;247.60;;;74.75;;
26536;SDS011;14204;51.262;5.488;2022-12-16T08:09:42;286.33;;;74.25;;
26536;SDS011;14204;51.262;5.488;2022-12-16T08:12:27;284.58;;;78.00;;
26536;SDS011;14204;51.262;5.488;2022-12-16T08:15:11;270.88;;;79.43;;
26536;SDS011;14204;51.262;5.488;2022-12-16T08:17:55;250.98;;;75.35;;
26536;SDS011;14204;51.262;5.488;2022-12-16T08:20:39;252.35;;;75.15;;
26536;SDS011;14204;51.262;5.488;2022-12-16T08:23:23;215.23;;;64.32;;
26536;SDS011;14204;51.262;5.488;2022-12-16T08:26:08;259.25;;;74.38;;
26536;SDS011;14204;51.262;5.488;2022-12-16T08:28:52;278.05;;;76.35;;
26536;SDS011;14204;51.262;5.488;2022-12-16T08:31:37;270.25;;;78.57;;
26536;SDS011;14204;51.262;5.488;2022-12-16T08:34:21;205.43;;;68.53;;
26536;SDS011;14204;51.262;5.488;2022-12-16T08:37:05;250.98;;;66.47;;
26536;SDS011;14204;51.262;5.488;2022-12-16T08:39:49;287.33;;;78.03;;
26536;SDS011;14204;51.262;5.488;2022-12-16T08:42:33;250.68;;;76.70;;
26536;SDS011;14204;51.262;5.488;2022-12-16T08:45:18;266.38;;;78.78;;
26536;SDS011;14204;51.262;5.488;2022-12-16T08:48:02;256.48;;;74.05;;
26536;SDS011;14204;51.262;5.488;2022-12-16T08:50:46;260.92;;;76.35;;
26536;SDS011;14204;51.262;5.488;2022-12-16T08:53:30;445.08;;;101.53;;
26536;SDS011;14204;51.262;5.488;2022-12-16T08:56:14;266.85;;;80.90;;
26536;SDS011;14204;51.262;5.488;2022-12-16T08:58:58;282.40;;;79.43;;
26536;SDS011;14204;51.262;5.488;2022-12-16T09:01:42;299.90;;;83.88;;
26536;SDS011;14204;51.262;5.488;2022-12-16T09:04:26;268.02;;;75.80;;
26536;SDS011;14204;51.262;5.488;2022-12-16T09:07:10;269.42;;;80.80;;
26536;SDS011;14204;51.262;5.488;2022-12-16T09:09:54;268.85;;;78.63;;
26536;SDS011;14204;51.262;5.488;2022-12-16T09:12:38;261.55;;;76.93;;
26536;SDS011;14204;51.262;5.488;2022-12-16T09:15:22;248.10;;;73.63;;
26536;SDS011;14204;51.262;5.488;2022-12-16T09:18:06;243.60;;;69.32;;
26536;SDS011;14204;51.262;5.488;2022-12-16T09:20:51;235.75;;;70.80;;
26536;SDS011;14204;51.262;5.488;2022-12-16T09:23:35;204.98;;;63.80;;
26536;SDS011;14204;51.262;5.488;2022-12-16T09:26:20;237.35;;;71.57;;
26536;SDS011;14204;51.262;5.488;2022-12-16T09:29:04;226.00;;;66.15;;
26536;SDS011;14204;51.262;5.488;2022-12-16T09:31:48;198.88;;;60.63;;
26536;SDS011;14204;51.262;5.488;2022-12-16T09:34:32;192.95;;;57.55;;
26536;SDS011;14204;51.262;5.488;2022-12-16T09:37:16;187.00;;;55.08;;
26536;SDS011;14204;51.262;5.488;2022-12-16T09:40:00;203.20;;;54.03;;
26536;SDS011;14204;51.262;5.488;2022-12-16T09:42:50;168.55;;;51.10;;
26536;SDS011;14204;51.262;5.488;2022-12-16T09:45:45;143.07;;;48.97;;
26536;SDS011;14204;51.262;5.488;2022-12-16T09:52:23;157.75;;;52.00;;
26536;SDS011;14204;51.262;5.488;2022-12-16T09:55:16;140.82;;;46.55;;
26536;SDS011;14204;51.262;5.488;2022-12-16T09:58:09;150.80;;;48.35;;
26536;SDS011;14204;51.262;5.488;2022-12-16T10:00:55;148.65;;;48.08;;
26536;SDS011;14204;51.262;5.488;2022-12-16T10:03:40;147.45;;;48.10;;
26536;SDS011;14204;51.262;5.488;2022-12-16T10:06:39;139.65;;;46.63;;
26536;SDS011;14204;51.262;5.488;2022-12-16T10:30:26;118.25;;;43.63;;
26536;SDS011;14204;51.262;5.488;2022-12-16T10:33:12;118.18;;;43.13;;
26536;SDS011;14204;51.262;5.488;2022-12-16T10:35:58;121.85;;;43.13;;
26536;SDS011;14204;51.262;5.488;2022-12-16T10:38:43;116.80;;;43.88;;
26536;SDS011;14204;51.262;5.488;2022-12-16T10:41:35;108.70;;;40.75;;
26536;SDS011;14204;51.262;5.488;2022-12-16T10:44:28;113.75;;;44.65;;
26536;SDS011;14204;51.262;5.488;2022-12-16T10:47:36;103.90;;;43.17;;
26536;SDS011;14204;51.262;5.488;2022-12-16T10:50:20;105.68;;;41.83;;
26536;SDS011;14204;51.262;5.488;2022-12-16T10:53:12;114.68;;;40.38;;
26536;SDS011;14204;51.262;5.488;2022-12-16T10:58:58;118.25;;;42.85;;
26536;SDS011;14204;51.262;5.488;2022-12-16T11:05:00;102.22;;;41.20;;
26536;SDS011;14204;51.262;5.488;2022-12-16T11:10:29;98.63;;;41.88;;
26536;SDS011;14204;51.262;5.488;2022-12-16T11:13:25;100.43;;;41.55;;
26536;SDS011;14204;51.262;5.488;2022-12-16T11:19:24;97.82;;;41.95;;
26536;SDS011;14204;51.262;5.488;2022-12-16T11:22:18;95.53;;;41.47;;
26536;SDS011;14204;51.262;5.488;2022-12-16T11:25:14;96.18;;;41.03;;
26536;SDS011;14204;51.262;5.488;2022-12-16T11:30:58;97.90;;;40.38;;
26536;SDS011;14204;51.262;5.488;2022-12-16T11:33:57;83.75;;;39.47;;
26536;SDS011;14204;51.262;5.488;2022-12-16T11:36:42;97.70;;;41.80;;
26536;SDS011;14204;51.262;5.488;2022-12-16T11:39:28;89.90;;;42.33;;
26536;SDS011;14204;51.262;5.488;2022-12-16T11:42:24;94.07;;;43.03;;
26536;SDS011;14204;51.262;5.488;2022-12-16T11:45:18;90.97;;;42.25;;
26536;SDS011;14204;51.262;5.488;2022-12-16T11:51:18;96.95;;;42.05;;
26536;SDS011;14204;51.262;5.488;2022-12-16T11:57:19;97.63;;;43.35;;
26536;SDS011;14204;51.262;5.488;2022-12-16T12:00:11;90.60;;;40.47;;
26536;SDS011;14204;51.262;5.488;2022-12-16T12:03:05;89.57;;;42.42;;
26536;SDS011;14204;51.262;5.488;2022-12-16T12:06:07;96.05;;;41.55;;
26536;SDS011;14204;51.262;5.488;2022-12-16T12:12:28;97.85;;;42.03;;
26536;SDS011;14204;51.262;5.488;2022-12-16T12:18:37;101.53;;;42.50;;
26536;SDS011;14204;51.262;5.488;2022-12-16T12:21:25;100.68;;;46.15;;
26536;SDS011;14204;51.262;5.488;2022-12-16T12:27:32;90.97;;;39.80;;
26536;SDS011;14204;51.262;5.488;2022-12-16T12:30:39;87.72;;;38.55;;
26536;SDS011;14204;51.262;5.488;2022-12-16T12:37:02;83.70;;;40.70;;
26536;SDS011;14204;51.262;5.488;2022-12-16T12:40:14;76.93;;;36.72;;
26536;SDS011;14204;51.262;5.488;2022-12-16T12:43:04;72.22;;;35.92;;
26536;SDS011;14204;51.262;5.488;2022-12-16T12:46:14;73.30;;;37.20;;
26536;SDS011;14204;51.262;5.488;2022-12-16T12:49:28;78.40;;;38.75;;
26536;SDS011;14204;51.262;5.488;2022-12-16T12:52:21;72.95;;;37.72;;
26536;SDS011;14204;51.262;5.488;2022-12-16T12:57:55;67.25;;;35.35;;
26536;SDS011;14204;51.262;5.488;2022-12-16T13:00:43;68.03;;;35.15;;
26536;SDS011;14204;51.262;5.488;2022-12-16T13:03:37;69.18;;;32.97;;
26536;SDS011;14204;51.262;5.488;2022-12-16T13:06:29;66.35;;;33.63;;
26536;SDS011;14204;51.262;5.488;2022-12-16T13:09:23;70.40;;;34.22;;
26536;SDS011;14204;51.262;5.488;2022-12-16T13:12:19;64.90;;;33.33;;
26536;SDS011;14204;51.262;5.488;2022-12-16T13:15:17;65.07;;;34.42;;
26536;SDS011;14204;51.262;5.488;2022-12-16T13:18:28;56.30;;;29.08;;
26536;SDS011;14204;51.262;5.488;2022-12-16T13:27:10;58.65;;;29.92;;
26536;SDS011;14204;51.262;5.488;2022-12-16T13:30:05;57.88;;;32.22;;
26536;SDS011;14204;51.262;5.488;2022-12-16T13:33:05;56.33;;;30.65;;
26536;SDS011;14204;51.262;5.488;2022-12-16T13:36:02;58.15;;;29.73;;
26536;SDS011;14204;51.262;5.488;2022-12-16T13:38:48;55.33;;;29.75;;
26536;SDS011;14204;51.262;5.488;2022-12-16T13:50:37;47.65;;;25.10;;
26536;SDS011;14204;51.262;5.488;2022-12-16T13:53:28;46.45;;;25.83;;
26536;SDS011;14204;51.262;5.488;2022-12-16T13:56:34;46.00;;;24.02;;
26536;SDS011;14204;51.262;5.488;2022-12-16T13:59:24;48.25;;;24.58;;
26536;SDS011;14204;51.262;5.488;2022-12-16T14:05:03;51.40;;;23.33;;
26536;SDS011;14204;51.262;5.488;2022-12-16T14:07:56;44.63;;;23.80;;
26536;SDS011;14204;51.262;5.488;2022-12-16T14:10:41;45.60;;;22.77;;
26536;SDS011;14204;51.262;5.488;2022-12-16T14:13:37;43.20;;;22.63;;
26536;SDS011;14204;51.262;5.488;2022-12-16T14:25:34;45.72;;;23.30;;
26536;SDS011;14204;51.262;5.488;2022-12-16T14:28:34;44.90;;;22.48;;
26536;SDS011;14204;51.262;5.488;2022-12-16T14:31:20;44.17;;;23.25;;
26536;SDS011;14204;51.262;5.488;2022-12-16T14:34:16;43.50;;;23.80;;
26536;SDS011;14204;51.262;5.488;2022-12-16T14:40:19;47.97;;;24.42;;
26536;SDS011;14204;51.262;5.488;2022-12-16T14:43:18;46.10;;;23.90;;
26536;SDS011;14204;51.262;5.488;2022-12-16T14:46:03;46.05;;;24.40;;
26536;SDS011;14204;51.262;5.488;2022-12-16T14:48:48;47.95;;;24.75;;
26536;SDS011;14204;51.262;5.488;2022-12-16T14:51:37;48.65;;;26.25;;
26536;SDS011;14204;51.262;5.488;2022-12-16T14:54:35;48.08;;;27.10;;
26536;SDS011;14204;51.262;5.488;2022-12-16T14:57:26;49.83;;;24.67;;
26536;SDS011;14204;51.262;5.488;2022-12-16T15:00:14;52.78;;;26.38;;
26536;SDS011;14204;51.262;5.488;2022-12-16T15:03:00;52.50;;;25.45;;
26536;SDS011;14204;51.262;5.488;2022-12-16T15:05:47;53.80;;;26.13;;
26536;SDS011;14204;51.262;5.488;2022-12-16T15:08:33;54.90;;;26.83;;
26536;SDS011;14204;51.262;5.488;2022-12-16T15:11:23;55.33;;;28.13;;
26536;SDS011;14204;51.262;5.488;2022-12-16T15:14:09;57.75;;;29.50;;
26536;SDS011;14204;51.262;5.488;2022-12-16T15:16:57;53.90;;;26.55;;
26536;SDS011;14204;51.262;5.488;2022-12-16T15:19:50;56.22;;;27.92;;
26536;SDS011;14204;51.262;5.488;2022-12-16T15:22:35;55.97;;;27.50;;
26536;SDS011;14204;51.262;5.488;2022-12-16T15:25:25;61.67;;;28.65;;
26536;SDS011;14204;51.262;5.488;2022-12-16T15:28:24;61.95;;;30.85;;
26536;SDS011;14204;51.262;5.488;2022-12-16T15:31:23;56.53;;;28.77;;
26536;SDS011;14204;51.262;5.488;2022-12-16T15:34:16;60.80;;;32.22;;
26536;SDS011;14204;51.262;5.488;2022-12-16T15:43:05;57.92;;;29.75;;
26536;SDS011;14204;51.262;5.488;2022-12-16T15:46:02;61.10;;;29.52;;
26536;SDS011;14204;51.262;5.488;2022-12-16T15:48:47;54.47;;;27.23;;
26536;SDS011;14204;51.262;5.488;2022-12-16T15:51:42;52.03;;;27.38;;
26536;SDS011;14204;51.262;5.488;2022-12-16T15:54:30;48.67;;;25.60;;
26536;SDS011;14204;51.262;5.488;2022-12-16T16:00:25;62.03;;;27.45;;
26536;SDS011;14204;51.262;5.488;2022-12-16T16:03:27;56.25;;;28.42;;
26536;SDS011;14204;51.262;5.488;2022-12-16T16:06:17;56.50;;;28.25;;
26536;SDS011;14204;51.262;5.488;2022-12-16T16:09:20;51.58;;;26.13;;
26536;SDS011;14204;51.262;5.488;2022-12-16T16:12:09;57.67;;;28.92;;
26536;SDS011;14204;51.262;5.488;2022-12-16T16:14:54;53.97;;;26.85;;
26536;SDS011;14204;51.262;5.488;2022-12-16T16:17:38;53.35;;;25.80;;
26536;SDS011;14204;51.262;5.488;2022-12-16T16:20:22;48.63;;;25.15;;
26536;SDS011;14204;51.262;5.488;2022-12-16T16:23:08;54.53;;;28.02;;
26536;SDS011;14204;51.262;5.488;2022-12-16T16:25:53;52.17;;;28.73;;
26536;SDS011;14204;51.262;5.488;2022-12-16T16:28:37;51.70;;;28.65;;
26536;SDS011;14204;51.262;5.488;2022-12-16T16:31:21;58.95;;;31.40;;
26536;SDS011;14204;51.262;5.488;2022-12-16T16:34:06;63.45;;;31.55;;
26536;SDS011;14204;51.262;5.488;2022-12-16T16:36:54;65.85;;;32.60;;
26536;SDS011;14204;51.262;5.488;2022-12-16T16:39:40;69.40;;;33.95;;
26536;SDS011;14204;51.262;5.488;2022-12-16T16:42:26;65.50;;;34.00;;
26536;SDS011;14204;51.262;5.488;2022-12-16T16:45:10;68.70;;;34.55;;
26536;SDS011;14204;51.262;5.488;2022-12-16T16:48:00;71.60;;;33.92;;
26536;SDS011;14204;51.262;5.488;2022-12-16T16:50:54;72.10;;;37.13;;
26536;SDS011;14204;51.262;5.488;2022-12-16T16:53:40;69.82;;;37.00;;
26536;SDS011;14204;51.262;5.488;2022-12-16T16:56:24;70.78;;;35.53;;
26536;SDS011;14204;51.262;5.488;2022-12-16T16:59:10;79.35;;;42.30;;
26536;SDS011;14204;51.262;5.488;2022-12-16T17:01:55;66.75;;;33.88;;
26536;SDS011;14204;51.262;5.488;2022-12-16T17:04:39;76.82;;;37.88;;
26536;SDS011;14204;51.262;5.488;2022-12-16T17:07:23;68.72;;;38.50;;
26536;SDS011;14204;51.262;5.488;2022-12-16T17:10:08;70.70;;;37.78;;
26536;SDS011;14204;51.262;5.488;2022-12-16T17:12:53;71.07;;;36.58;;
26536;SDS011;14204;51.262;5.488;2022-12-16T17:15:37;70.78;;;34.90;;
26536;SDS011;14204;51.262;5.488;2022-12-16T17:18:22;65.38;;;32.45;;
26536;SDS011;14204;51.262;5.488;2022-12-16T17:21:06;62.50;;;30.13;;
26536;SDS011;14204;51.262;5.488;2022-12-16T17:23:50;68.13;;;33.08;;
26536;SDS011;14204;51.262;5.488;2022-12-16T17:26:39;65.57;;;32.97;;
26536;SDS011;14204;51.262;5.488;2022-12-16T17:29:27;57.83;;;30.43;;
26536;SDS011;14204;51.262;5.488;2022-12-16T17:32:12;59.17;;;30.70;;
26536;SDS011;14204;51.262;5.488;2022-12-16T17:34:57;69.03;;;33.97;;
26536;SDS011;14204;51.262;5.488;2022-12-16T17:37:41;62.88;;;32.30;;
26536;SDS011;14204;51.262;5.488;2022-12-16T17:40:26;78.00;;;37.47;;
26536;SDS011;14204;51.262;5.488;2022-12-16T17:43:11;64.50;;;31.83;;
26536;SDS011;14204;51.262;5.488;2022-12-16T17:46:03;67.60;;;30.42;;
26536;SDS011;14204;51.262;5.488;2022-12-16T17:48:49;70.55;;;34.58;;
26536;SDS011;14204;51.262;5.488;2022-12-16T17:51:34;60.00;;;31.60;;
26536;SDS011;14204;51.262;5.488;2022-12-16T17:54:19;66.65;;;32.53;;
26536;SDS011;14204;51.262;5.488;2022-12-16T17:57:03;64.40;;;31.58;;
26536;SDS011;14204;51.262;5.488;2022-12-16T17:59:47;65.53;;;32.80;;
26536;SDS011;14204;51.262;5.488;2022-12-16T18:02:31;63.85;;;32.67;;